sensor_id;sensor_type;location;lat;lon;timestamp;P1;durP1;ratioP1;P2;durP2;ratioP2
44588;SDS011;30298;52.562;13.414;2022-08-16T00:01:22;60.63;;;34.27;;
44588;SDS011;30298;52.562;13.414;2022-08-16T00:03:47;67.53;;;35.35;;
44588;SDS011;30298;52.562;13.414;2022-08-16T00:08:38;61.13;;;35.45;;
44588;SDS011;30298;52.562;13.414;2022-08-16T00:11:07;63.45;;;35.38;;
44588;SDS011;30298;52.562;13.414;2022-08-16T00:13:33;64.97;;;36.40;;
44588;SDS011;30298;52.562;13.414;2022-08-16T00:18:24;68.65;;;35.47;;
44588;SDS011;30298;52.562;13.414;2022-08-16T00:23:14;70.53;;;37.15;;
44588;SDS011;30298;52.562;13.414;2022-08-16T00:28:05;69.65;;;36.20;;
44588;SDS011;30298;52.562;13.414;2022-08-16T00:30:30;65.30;;;36.45;;
44588;SDS011;30298;52.562;13.414;2022-08-16T00:35:23;65.05;;;34.40;;
44588;SDS011;30298;52.562;13.414;2022-08-16T00:37:48;65.47;;;37.38;;
44588;SDS011;30298;52.562;13.414;2022-08-16T00:40:17;65.95;;;35.22;;
44588;SDS011;30298;52.562;13.414;2022-08-16T00:42:43;68.13;;;36.92;;
44588;SDS011;30298;52.562;13.414;2022-08-16T00:47:54;49.88;;;30.15;;
44588;SDS011;30298;52.562;13.414;2022-08-16T00:50:25;46.95;;;30.00;;
44588;SDS011;30298;52.562;13.414;2022-08-16T00:52:51;45.85;;;30.50;;
44588;SDS011;30298;52.562;13.414;2022-08-16T00:55:16;42.97;;;28.53;;
44588;SDS011;30298;52.562;13.414;2022-08-16T00:57:42;43.80;;;27.73;;
44588;SDS011;30298;52.562;13.414;2022-08-16T01:02:33;39.88;;;27.40;;
44588;SDS011;30298;52.562;13.414;2022-08-16T01:07:23;35.70;;;25.67;;
44588;SDS011;30298;52.562;13.414;2022-08-16T01:09:49;40.00;;;27.20;;
44588;SDS011;30298;52.562;13.414;2022-08-16T01:12:15;36.97;;;26.03;;
44588;SDS011;30298;52.562;13.414;2022-08-16T01:14:45;38.60;;;25.55;;
44588;SDS011;30298;52.562;13.414;2022-08-16T01:17:12;34.97;;;23.95;;
44588;SDS011;30298;52.562;13.414;2022-08-16T01:24:51;31.20;;;22.55;;
44588;SDS011;30298;52.562;13.414;2022-08-16T01:27:22;26.75;;;21.17;;
44588;SDS011;30298;52.562;13.414;2022-08-16T01:29:50;30.33;;;21.27;;
44588;SDS011;30298;52.562;13.414;2022-08-16T01:32:18;27.70;;;22.70;;
44588;SDS011;30298;52.562;13.414;2022-08-16T01:34:44;26.48;;;20.60;;
44588;SDS011;30298;52.562;13.414;2022-08-16T01:39:35;26.92;;;21.13;;
44588;SDS011;30298;52.562;13.414;2022-08-16T01:44:26;30.35;;;22.10;;
44588;SDS011;30298;52.562;13.414;2022-08-16T01:54:09;31.73;;;22.33;;
44588;SDS011;30298;52.562;13.414;2022-08-16T01:56:35;36.00;;;23.10;;
44588;SDS011;30298;52.562;13.414;2022-08-16T01:59:02;34.00;;;23.55;;
44588;SDS011;30298;52.562;13.414;2022-08-16T02:01:28;33.97;;;22.92;;
44588;SDS011;30298;52.562;13.414;2022-08-16T02:03:53;32.42;;;24.55;;
44588;SDS011;30298;52.562;13.414;2022-08-16T02:06:19;31.15;;;23.88;;
44588;SDS011;30298;52.562;13.414;2022-08-16T02:11:10;33.45;;;24.40;;
44588;SDS011;30298;52.562;13.414;2022-08-16T02:13:37;35.53;;;25.65;;
44588;SDS011;30298;52.562;13.414;2022-08-16T02:16:05;40.13;;;26.50;;
44588;SDS011;30298;52.562;13.414;2022-08-16T02:18:30;37.80;;;26.70;;
44588;SDS011;30298;52.562;13.414;2022-08-16T02:20:56;38.33;;;26.67;;
44588;SDS011;30298;52.562;13.414;2022-08-16T02:23:21;40.42;;;28.23;;
44588;SDS011;30298;52.562;13.414;2022-08-16T02:25:46;40.17;;;26.23;;
44588;SDS011;30298;52.562;13.414;2022-08-16T02:28:13;36.33;;;25.98;;
44588;SDS011;30298;52.562;13.414;2022-08-16T02:30:39;38.97;;;27.30;;
44588;SDS011;30298;52.562;13.414;2022-08-16T02:33:04;36.42;;;26.65;;
44588;SDS011;30298;52.562;13.414;2022-08-16T02:35:30;38.63;;;26.10;;
44588;SDS011;30298;52.562;13.414;2022-08-16T02:37:55;38.15;;;26.88;;
44588;SDS011;30298;52.562;13.414;2022-08-16T02:40:21;41.97;;;28.40;;
44588;SDS011;30298;52.562;13.414;2022-08-16T02:45:12;38.63;;;27.10;;
44588;SDS011;30298;52.562;13.414;2022-08-16T02:47:37;42.50;;;28.38;;
44588;SDS011;30298;52.562;13.414;2022-08-16T02:50:03;40.37;;;27.37;;
44588;SDS011;30298;52.562;13.414;2022-08-16T02:52:28;43.10;;;28.30;;
44588;SDS011;30298;52.562;13.414;2022-08-16T02:57:19;44.88;;;29.25;;
44588;SDS011;30298;52.562;13.414;2022-08-16T02:59:46;41.05;;;29.02;;
44588;SDS011;30298;52.562;13.414;2022-08-16T03:02:11;45.13;;;29.50;;
44588;SDS011;30298;52.562;13.414;2022-08-16T03:04:37;44.90;;;29.65;;
44588;SDS011;30298;52.562;13.414;2022-08-16T03:07:04;43.42;;;28.10;;
44588;SDS011;30298;52.562;13.414;2022-08-16T03:09:30;44.50;;;29.70;;
44588;SDS011;30298;52.562;13.414;2022-08-16T03:11:55;51.17;;;35.10;;
44588;SDS011;30298;52.562;13.414;2022-08-16T03:14:21;53.08;;;35.38;;
44588;SDS011;30298;52.562;13.414;2022-08-16T03:19:11;50.95;;;34.03;;
44588;SDS011;30298;52.562;13.414;2022-08-16T03:21:36;53.78;;;33.78;;
44588;SDS011;30298;52.562;13.414;2022-08-16T03:24:02;56.63;;;33.75;;
44588;SDS011;30298;52.562;13.414;2022-08-16T03:26:27;56.80;;;35.55;;
44588;SDS011;30298;52.562;13.414;2022-08-16T03:28:52;60.70;;;35.83;;
44588;SDS011;30298;52.562;13.414;2022-08-16T03:31:18;58.28;;;36.20;;
44588;SDS011;30298;52.562;13.414;2022-08-16T03:36:08;58.63;;;35.58;;
44588;SDS011;30298;52.562;13.414;2022-08-16T03:38:34;70.18;;;38.75;;
44588;SDS011;30298;52.562;13.414;2022-08-16T03:41:00;58.83;;;36.03;;
44588;SDS011;30298;52.562;13.414;2022-08-16T03:43:26;60.47;;;36.60;;
44588;SDS011;30298;52.562;13.414;2022-08-16T03:48:16;54.47;;;34.00;;
44588;SDS011;30298;52.562;13.414;2022-08-16T03:50:42;55.47;;;32.57;;
44588;SDS011;30298;52.562;13.414;2022-08-16T03:53:07;55.72;;;33.95;;
44588;SDS011;30298;52.562;13.414;2022-08-16T03:55:32;56.20;;;34.67;;
44588;SDS011;30298;52.562;13.414;2022-08-16T03:57:57;54.15;;;33.40;;
44588;SDS011;30298;52.562;13.414;2022-08-16T04:00:25;54.95;;;34.60;;
44588;SDS011;30298;52.562;13.414;2022-08-16T04:02:52;56.17;;;33.22;;
44588;SDS011;30298;52.562;13.414;2022-08-16T04:05:18;58.30;;;35.10;;
44588;SDS011;30298;52.562;13.414;2022-08-16T04:07:43;52.97;;;33.33;;
44588;SDS011;30298;52.562;13.414;2022-08-16T04:10:09;54.37;;;34.07;;
44588;SDS011;30298;52.562;13.414;2022-08-16T04:12:35;57.58;;;33.97;;
44588;SDS011;30298;52.562;13.414;2022-08-16T04:15:01;55.63;;;32.28;;
44588;SDS011;30298;52.562;13.414;2022-08-16T04:17:27;62.72;;;34.00;;
44588;SDS011;30298;52.562;13.414;2022-08-16T04:19:53;59.47;;;33.55;;
44588;SDS011;30298;52.562;13.414;2022-08-16T04:22:18;58.03;;;32.20;;
44588;SDS011;30298;52.562;13.414;2022-08-16T04:24:44;55.35;;;32.40;;
44588;SDS011;30298;52.562;13.414;2022-08-16T04:27:09;53.53;;;33.72;;
44588;SDS011;30298;52.562;13.414;2022-08-16T04:29:35;55.77;;;31.80;;
44588;SDS011;30298;52.562;13.414;2022-08-16T04:32:00;53.07;;;32.43;;
44588;SDS011;30298;52.562;13.414;2022-08-16T04:36:50;52.65;;;32.35;;
44588;SDS011;30298;52.562;13.414;2022-08-16T04:39:16;57.67;;;34.23;;
44588;SDS011;30298;52.562;13.414;2022-08-16T04:41:41;58.67;;;33.40;;
44588;SDS011;30298;52.562;13.414;2022-08-16T04:44:06;55.50;;;35.10;;
44588;SDS011;30298;52.562;13.414;2022-08-16T04:46:31;54.17;;;33.10;;
44588;SDS011;30298;52.562;13.414;2022-08-16T04:48:57;58.37;;;35.07;;
44588;SDS011;30298;52.562;13.414;2022-08-16T04:51:23;56.63;;;33.85;;
44588;SDS011;30298;52.562;13.414;2022-08-16T04:53:48;54.47;;;33.58;;
44588;SDS011;30298;52.562;13.414;2022-08-16T04:56:14;56.05;;;34.13;;
44588;SDS011;30298;52.562;13.414;2022-08-16T05:01:05;58.60;;;37.47;;
44588;SDS011;30298;52.562;13.414;2022-08-16T05:05:55;55.10;;;33.80;;
44588;SDS011;30298;52.562;13.414;2022-08-16T05:08:24;56.92;;;35.13;;
44588;SDS011;30298;52.562;13.414;2022-08-16T05:10:49;56.72;;;36.20;;
44588;SDS011;30298;52.562;13.414;2022-08-16T05:13:14;55.55;;;34.65;;
44588;SDS011;30298;52.562;13.414;2022-08-16T05:15:41;58.72;;;35.50;;
44588;SDS011;30298;52.562;13.414;2022-08-16T05:18:07;47.20;;;31.60;;
44588;SDS011;30298;52.562;13.414;2022-08-16T05:20:32;47.20;;;30.47;;
44588;SDS011;30298;52.562;13.414;2022-08-16T05:25:23;51.15;;;31.25;;
44588;SDS011;30298;52.562;13.414;2022-08-16T05:30:13;45.08;;;29.95;;
44588;SDS011;30298;52.562;13.414;2022-08-16T05:32:39;46.20;;;32.35;;
44588;SDS011;30298;52.562;13.414;2022-08-16T05:35:05;38.88;;;28.23;;
44588;SDS011;30298;52.562;13.414;2022-08-16T05:37:35;38.90;;;26.98;;
44588;SDS011;30298;52.562;13.414;2022-08-16T05:40:01;38.25;;;25.60;;
44588;SDS011;30298;52.562;13.414;2022-08-16T05:42:27;35.45;;;24.67;;
44588;SDS011;30298;52.562;13.414;2022-08-16T05:47:17;35.90;;;24.63;;
44588;SDS011;30298;52.562;13.414;2022-08-16T05:52:08;32.27;;;23.43;;
44588;SDS011;30298;52.562;13.414;2022-08-16T05:54:34;28.80;;;23.30;;
44588;SDS011;30298;52.562;13.414;2022-08-16T05:59:25;27.20;;;21.92;;
44588;SDS011;30298;52.562;13.414;2022-08-16T06:01:50;35.92;;;23.30;;
44588;SDS011;30298;52.562;13.414;2022-08-16T06:06:41;30.00;;;22.95;;
44588;SDS011;30298;52.562;13.414;2022-08-16T06:09:07;27.77;;;22.75;;
44588;SDS011;30298;52.562;13.414;2022-08-16T06:13:58;31.55;;;24.90;;
44588;SDS011;30298;52.562;13.414;2022-08-16T06:18:48;34.22;;;26.25;;
44588;SDS011;30298;52.562;13.414;2022-08-16T06:21:13;35.63;;;27.10;;
44588;SDS011;30298;52.562;13.414;2022-08-16T06:26:04;32.88;;;25.60;;
44588;SDS011;30298;52.562;13.414;2022-08-16T06:30:55;30.13;;;23.65;;
44588;SDS011;30298;52.562;13.414;2022-08-16T06:33:23;35.78;;;26.55;;
44588;SDS011;30298;52.562;13.414;2022-08-16T06:35:52;35.17;;;25.77;;
44588;SDS011;30298;52.562;13.414;2022-08-16T06:38:18;33.45;;;23.95;;
44588;SDS011;30298;52.562;13.414;2022-08-16T06:43:08;29.17;;;23.73;;
44588;SDS011;30298;52.562;13.414;2022-08-16T06:48:02;29.45;;;22.00;;
44588;SDS011;30298;52.562;13.414;2022-08-16T06:50:28;30.30;;;21.30;;
44588;SDS011;30298;52.562;13.414;2022-08-16T06:55:22;25.35;;;19.77;;
44588;SDS011;30298;52.562;13.414;2022-08-16T07:00:13;27.52;;;22.38;;
44588;SDS011;30298;52.562;13.414;2022-08-16T07:05:04;27.60;;;20.70;;
44588;SDS011;30298;52.562;13.414;2022-08-16T07:07:30;26.27;;;20.67;;
44588;SDS011;30298;52.562;13.414;2022-08-16T07:12:20;25.45;;;20.17;;
44588;SDS011;30298;52.562;13.414;2022-08-16T07:17:11;26.75;;;19.35;;
44588;SDS011;30298;52.562;13.414;2022-08-16T07:22:04;24.50;;;18.73;;
44588;SDS011;30298;52.562;13.414;2022-08-16T07:26:55;27.17;;;19.23;;
44588;SDS011;30298;52.562;13.414;2022-08-16T07:31:45;26.17;;;19.85;;
44588;SDS011;30298;52.562;13.414;2022-08-16T07:36:35;23.95;;;18.30;;
44588;SDS011;30298;52.562;13.414;2022-08-16T07:41:26;23.60;;;17.95;;
44588;SDS011;30298;52.562;13.414;2022-08-16T07:46:16;20.70;;;16.80;;
44588;SDS011;30298;52.562;13.414;2022-08-16T07:51:07;17.90;;;15.30;;
44588;SDS011;30298;52.562;13.414;2022-08-16T07:56:00;19.88;;;15.02;;
44588;SDS011;30298;52.562;13.414;2022-08-16T08:00:52;18.92;;;13.13;;
44588;SDS011;30298;52.562;13.414;2022-08-16T08:05:43;16.15;;;12.57;;
44588;SDS011;30298;52.562;13.414;2022-08-16T08:10:33;17.27;;;12.63;;
44588;SDS011;30298;52.562;13.414;2022-08-16T08:12:58;15.27;;;13.05;;
44588;SDS011;30298;52.562;13.414;2022-08-16T08:17:49;15.80;;;12.13;;
44588;SDS011;30298;52.562;13.414;2022-08-16T08:22:39;14.65;;;11.27;;
44588;SDS011;30298;52.562;13.414;2022-08-16T08:27:30;15.47;;;11.53;;
44588;SDS011;30298;52.562;13.414;2022-08-16T08:29:56;16.30;;;13.25;;
44588;SDS011;30298;52.562;13.414;2022-08-16T08:32:22;13.57;;;11.50;;
44588;SDS011;30298;52.562;13.414;2022-08-16T08:34:51;16.25;;;11.50;;
44588;SDS011;30298;52.562;13.414;2022-08-16T08:39:41;13.85;;;11.57;;
44588;SDS011;30298;52.562;13.414;2022-08-16T08:42:07;22.48;;;12.25;;
44588;SDS011;30298;52.562;13.414;2022-08-16T08:46:59;21.70;;;12.53;;
44588;SDS011;30298;52.562;13.414;2022-08-16T08:49:24;11.40;;;10.02;;
44588;SDS011;30298;52.562;13.414;2022-08-16T08:51:50;13.18;;;11.32;;
44588;SDS011;30298;52.562;13.414;2022-08-16T08:54:15;14.35;;;10.82;;
44588;SDS011;30298;52.562;13.414;2022-08-16T08:56:40;14.33;;;11.97;;
44588;SDS011;30298;52.562;13.414;2022-08-16T08:59:06;12.80;;;11.23;;
44588;SDS011;30298;52.562;13.414;2022-08-16T09:01:33;14.27;;;10.65;;
44588;SDS011;30298;52.562;13.414;2022-08-16T09:03:58;14.23;;;12.70;;
44588;SDS011;30298;52.562;13.414;2022-08-16T09:06:24;14.98;;;10.90;;
44588;SDS011;30298;52.562;13.414;2022-08-16T09:08:49;14.63;;;10.60;;
44588;SDS011;30298;52.562;13.414;2022-08-16T09:11:14;17.08;;;11.43;;
44588;SDS011;30298;52.562;13.414;2022-08-16T09:13:40;12.00;;;9.60;;
44588;SDS011;30298;52.562;13.414;2022-08-16T09:16:05;13.10;;;11.30;;
44588;SDS011;30298;52.562;13.414;2022-08-16T09:18:30;13.07;;;10.25;;
44588;SDS011;30298;52.562;13.414;2022-08-16T09:20:56;14.23;;;10.27;;
44588;SDS011;30298;52.562;13.414;2022-08-16T09:23:23;12.07;;;9.88;;
44588;SDS011;30298;52.562;13.414;2022-08-16T09:25:49;12.15;;;10.50;;
44588;SDS011;30298;52.562;13.414;2022-08-16T09:28:16;14.02;;;11.52;;
44588;SDS011;30298;52.562;13.414;2022-08-16T09:30:41;12.52;;;10.23;;
44588;SDS011;30298;52.562;13.414;2022-08-16T09:33:06;11.95;;;9.40;;
44588;SDS011;30298;52.562;13.414;2022-08-16T09:35:32;13.35;;;8.98;;
44588;SDS011;30298;52.562;13.414;2022-08-16T09:37:58;15.68;;;10.88;;
44588;SDS011;30298;52.562;13.414;2022-08-16T09:40:23;14.00;;;9.60;;
44588;SDS011;30298;52.562;13.414;2022-08-16T09:42:52;12.88;;;9.68;;
44588;SDS011;30298;52.562;13.414;2022-08-16T09:45:18;11.90;;;9.65;;
44588;SDS011;30298;52.562;13.414;2022-08-16T09:47:43;14.60;;;9.48;;
44588;SDS011;30298;52.562;13.414;2022-08-16T09:50:09;13.25;;;9.40;;
44588;SDS011;30298;52.562;13.414;2022-08-16T09:52:34;11.32;;;9.13;;
44588;SDS011;30298;52.562;13.414;2022-08-16T09:55:02;15.93;;;10.85;;
44588;SDS011;30298;52.562;13.414;2022-08-16T09:57:28;13.60;;;9.68;;
44588;SDS011;30298;52.562;13.414;2022-08-16T09:59:53;10.52;;;9.43;;
44588;SDS011;30298;52.562;13.414;2022-08-16T10:02:18;11.10;;;9.88;;
44588;SDS011;30298;52.562;13.414;2022-08-16T10:04:43;14.20;;;9.77;;
44588;SDS011;30298;52.562;13.414;2022-08-16T10:07:09;10.85;;;9.75;;
44588;SDS011;30298;52.562;13.414;2022-08-16T10:09:34;12.00;;;9.40;;
44588;SDS011;30298;52.562;13.414;2022-08-16T10:11:59;11.90;;;8.43;;
44588;SDS011;30298;52.562;13.414;2022-08-16T10:14:43;11.10;;;8.80;;
44588;SDS011;30298;52.562;13.414;2022-08-16T10:17:11;9.25;;;7.95;;
44588;SDS011;30298;52.562;13.414;2022-08-16T10:19:36;9.40;;;8.18;;
44588;SDS011;30298;52.562;13.414;2022-08-16T10:22:02;11.45;;;9.18;;
44588;SDS011;30298;52.562;13.414;2022-08-16T10:24:27;13.32;;;8.95;;
44588;SDS011;30298;52.562;13.414;2022-08-16T10:26:52;10.70;;;8.55;;
44588;SDS011;30298;52.562;13.414;2022-08-16T10:29:19;9.57;;;7.88;;
44588;SDS011;30298;52.562;13.414;2022-08-16T10:31:44;11.13;;;7.90;;
44588;SDS011;30298;52.562;13.414;2022-08-16T10:34:09;18.35;;;8.20;;
44588;SDS011;30298;52.562;13.414;2022-08-16T10:36:34;9.98;;;7.72;;
44588;SDS011;30298;52.562;13.414;2022-08-16T10:39:00;10.38;;;7.68;;
44588;SDS011;30298;52.562;13.414;2022-08-16T10:41:25;8.73;;;7.43;;
44588;SDS011;30298;52.562;13.414;2022-08-16T10:43:50;8.02;;;7.00;;
44588;SDS011;30298;52.562;13.414;2022-08-16T10:46:16;12.40;;;7.43;;
44588;SDS011;30298;52.562;13.414;2022-08-16T10:48:41;10.40;;;7.45;;
44588;SDS011;30298;52.562;13.414;2022-08-16T10:51:07;9.40;;;7.32;;
44588;SDS011;30298;52.562;13.414;2022-08-16T10:53:34;10.95;;;7.90;;
44588;SDS011;30298;52.562;13.414;2022-08-16T10:56:00;9.57;;;7.07;;
44588;SDS011;30298;52.562;13.414;2022-08-16T10:58:26;10.07;;;7.50;;
44588;SDS011;30298;52.562;13.414;2022-08-16T11:00:51;9.75;;;7.22;;
44588;SDS011;30298;52.562;13.414;2022-08-16T11:03:17;8.20;;;6.93;;
44588;SDS011;30298;52.562;13.414;2022-08-16T11:05:43;12.15;;;8.05;;
44588;SDS011;30298;52.562;13.414;2022-08-16T11:08:08;9.25;;;6.82;;
44588;SDS011;30298;52.562;13.414;2022-08-16T11:10:37;7.85;;;6.97;;
44588;SDS011;30298;52.562;13.414;2022-08-16T11:13:11;8.55;;;6.97;;
44588;SDS011;30298;52.562;13.414;2022-08-16T11:15:39;9.50;;;7.18;;
44588;SDS011;30298;52.562;13.414;2022-08-16T11:18:08;9.15;;;7.00;;
44588;SDS011;30298;52.562;13.414;2022-08-16T11:20:34;8.02;;;7.18;;
44588;SDS011;30298;52.562;13.414;2022-08-16T11:22:59;8.48;;;6.57;;
44588;SDS011;30298;52.562;13.414;2022-08-16T11:25:27;11.15;;;6.45;;
44588;SDS011;30298;52.562;13.414;2022-08-16T11:27:54;8.73;;;6.75;;
44588;SDS011;30298;52.562;13.414;2022-08-16T11:30:19;7.70;;;6.75;;
44588;SDS011;30298;52.562;13.414;2022-08-16T11:32:44;8.15;;;6.30;;
44588;SDS011;30298;52.562;13.414;2022-08-16T11:35:14;9.55;;;6.80;;
44588;SDS011;30298;52.562;13.414;2022-08-16T11:37:41;7.38;;;6.63;;
44588;SDS011;30298;52.562;13.414;2022-08-16T11:40:07;11.07;;;7.20;;
44588;SDS011;30298;52.562;13.414;2022-08-16T11:42:33;8.00;;;7.20;;
44588;SDS011;30298;52.562;13.414;2022-08-16T11:44:58;8.68;;;7.50;;
44588;SDS011;30298;52.562;13.414;2022-08-16T11:47:23;13.07;;;6.88;;
44588;SDS011;30298;52.562;13.414;2022-08-16T11:49:49;9.20;;;7.20;;
44588;SDS011;30298;52.562;13.414;2022-08-16T11:52:15;8.60;;;6.30;;
44588;SDS011;30298;52.562;13.414;2022-08-16T11:54:42;9.98;;;7.07;;
44588;SDS011;30298;52.562;13.414;2022-08-16T11:57:07;9.30;;;7.55;;
44588;SDS011;30298;52.562;13.414;2022-08-16T11:59:32;9.82;;;7.53;;
44588;SDS011;30298;52.562;13.414;2022-08-16T12:01:58;12.27;;;7.35;;
44588;SDS011;30298;52.562;13.414;2022-08-16T12:04:23;8.02;;;6.47;;
44588;SDS011;30298;52.562;13.414;2022-08-16T12:06:50;7.75;;;6.85;;
44588;SDS011;30298;52.562;13.414;2022-08-16T12:09:15;8.60;;;6.63;;
44588;SDS011;30298;52.562;13.414;2022-08-16T12:11:41;9.15;;;7.35;;
44588;SDS011;30298;52.562;13.414;2022-08-16T12:14:06;10.18;;;6.97;;
44588;SDS011;30298;52.562;13.414;2022-08-16T12:16:32;11.20;;;7.80;;
44588;SDS011;30298;52.562;13.414;2022-08-16T12:18:58;8.40;;;7.45;;
44588;SDS011;30298;52.562;13.414;2022-08-16T12:21:23;10.48;;;7.28;;
44588;SDS011;30298;52.562;13.414;2022-08-16T12:23:49;10.40;;;7.05;;
44588;SDS011;30298;52.562;13.414;2022-08-16T12:26:14;11.27;;;7.70;;
44588;SDS011;30298;52.562;13.414;2022-08-16T12:28:41;8.00;;;7.20;;
44588;SDS011;30298;52.562;13.414;2022-08-16T12:31:06;13.35;;;6.95;;
44588;SDS011;30298;52.562;13.414;2022-08-16T12:33:32;7.70;;;6.75;;
44588;SDS011;30298;52.562;13.414;2022-08-16T12:35:57;9.32;;;7.25;;
44588;SDS011;30298;52.562;13.414;2022-08-16T12:38:22;9.23;;;6.77;;
44588;SDS011;30298;52.562;13.414;2022-08-16T12:40:48;8.70;;;7.03;;
44588;SDS011;30298;52.562;13.414;2022-08-16T12:43:14;10.38;;;7.60;;
44588;SDS011;30298;52.562;13.414;2022-08-16T12:45:45;8.88;;;6.90;;
44588;SDS011;30298;52.562;13.414;2022-08-16T12:48:11;8.60;;;6.72;;
44588;SDS011;30298;52.562;13.414;2022-08-16T12:50:56;7.95;;;6.57;;
44588;SDS011;30298;52.562;13.414;2022-08-16T12:53:21;8.05;;;6.50;;
44588;SDS011;30298;52.562;13.414;2022-08-16T12:55:47;11.27;;;6.38;;
44588;SDS011;30298;52.562;13.414;2022-08-16T12:58:13;8.48;;;6.72;;
44588;SDS011;30298;52.562;13.414;2022-08-16T13:00:38;9.20;;;6.50;;
44588;SDS011;30298;52.562;13.414;2022-08-16T13:03:04;8.07;;;7.05;;
44588;SDS011;30298;52.562;13.414;2022-08-16T13:05:29;8.60;;;6.22;;
44588;SDS011;30298;52.562;13.414;2022-08-16T13:08:03;9.02;;;6.63;;
44588;SDS011;30298;52.562;13.414;2022-08-16T13:10:29;8.25;;;6.38;;
44588;SDS011;30298;52.562;13.414;2022-08-16T13:12:54;9.18;;;6.28;;
44588;SDS011;30298;52.562;13.414;2022-08-16T13:15:21;9.52;;;7.90;;
44588;SDS011;30298;52.562;13.414;2022-08-16T13:17:46;9.05;;;6.55;;
44588;SDS011;30298;52.562;13.414;2022-08-16T13:20:13;8.65;;;6.25;;
44588;SDS011;30298;52.562;13.414;2022-08-16T13:22:41;9.38;;;6.10;;
44588;SDS011;30298;52.562;13.414;2022-08-16T13:25:08;8.10;;;6.10;;
44588;SDS011;30298;52.562;13.414;2022-08-16T13:27:33;7.65;;;5.72;;
44588;SDS011;30298;52.562;13.414;2022-08-16T13:29:59;7.43;;;6.25;;
44588;SDS011;30298;52.562;13.414;2022-08-16T13:32:24;8.85;;;6.22;;
44588;SDS011;30298;52.562;13.414;2022-08-16T13:34:51;6.30;;;5.70;;
44588;SDS011;30298;52.562;13.414;2022-08-16T13:37:17;6.10;;;4.88;;
44588;SDS011;30298;52.562;13.414;2022-08-16T13:39:42;8.20;;;5.30;;
44588;SDS011;30298;52.562;13.414;2022-08-16T13:42:08;6.25;;;5.53;;
44588;SDS011;30298;52.562;13.414;2022-08-16T13:44:33;7.35;;;5.13;;
44588;SDS011;30298;52.562;13.414;2022-08-16T13:47:00;8.38;;;4.93;;
44588;SDS011;30298;52.562;13.414;2022-08-16T13:49:26;7.75;;;5.22;;
44588;SDS011;30298;52.562;13.414;2022-08-16T13:51:51;5.55;;;4.78;;
44588;SDS011;30298;52.562;13.414;2022-08-16T13:54:16;9.05;;;5.32;;
44588;SDS011;30298;52.562;13.414;2022-08-16T13:56:41;5.68;;;4.80;;
44588;SDS011;30298;52.562;13.414;2022-08-16T13:59:08;5.63;;;4.90;;
44588;SDS011;30298;52.562;13.414;2022-08-16T14:01:34;6.93;;;5.35;;
44588;SDS011;30298;52.562;13.414;2022-08-16T14:03:59;7.70;;;4.97;;
44588;SDS011;30298;52.562;13.414;2022-08-16T14:06:25;5.85;;;5.03;;
44588;SDS011;30298;52.562;13.414;2022-08-16T14:08:50;6.83;;;4.90;;
44588;SDS011;30298;52.562;13.414;2022-08-16T14:11:16;6.13;;;5.10;;
44588;SDS011;30298;52.562;13.414;2022-08-16T14:13:41;9.07;;;4.93;;
44588;SDS011;30298;52.562;13.414;2022-08-16T14:16:10;6.63;;;5.00;;
44588;SDS011;30298;52.562;13.414;2022-08-16T14:18:35;7.88;;;5.28;;
44588;SDS011;30298;52.562;13.414;2022-08-16T14:21:00;6.85;;;4.80;;
44588;SDS011;30298;52.562;13.414;2022-08-16T14:23:25;5.22;;;4.72;;
44588;SDS011;30298;52.562;13.414;2022-08-16T14:25:51;5.95;;;4.97;;
44588;SDS011;30298;52.562;13.414;2022-08-16T14:28:16;5.20;;;4.70;;
44588;SDS011;30298;52.562;13.414;2022-08-16T14:30:42;6.03;;;5.20;;
44588;SDS011;30298;52.562;13.414;2022-08-16T14:33:07;7.15;;;5.40;;
44588;SDS011;30298;52.562;13.414;2022-08-16T14:35:32;6.88;;;4.55;;
44588;SDS011;30298;52.562;13.414;2022-08-16T14:37:58;7.05;;;4.38;;
44588;SDS011;30298;52.562;13.414;2022-08-16T14:40:24;7.25;;;5.07;;
44588;SDS011;30298;52.562;13.414;2022-08-16T14:42:49;5.18;;;4.68;;
44588;SDS011;30298;52.562;13.414;2022-08-16T14:45:16;7.32;;;4.80;;
44588;SDS011;30298;52.562;13.414;2022-08-16T14:47:42;7.80;;;4.43;;
44588;SDS011;30298;52.562;13.414;2022-08-16T14:50:09;6.50;;;4.63;;
44588;SDS011;30298;52.562;13.414;2022-08-16T14:52:34;4.95;;;4.30;;
44588;SDS011;30298;52.562;13.414;2022-08-16T14:55:00;8.77;;;5.05;;
44588;SDS011;30298;52.562;13.414;2022-08-16T14:57:25;6.47;;;4.88;;
44588;SDS011;30298;52.562;13.414;2022-08-16T14:59:50;8.45;;;6.10;;
44588;SDS011;30298;52.562;13.414;2022-08-16T15:02:18;10.48;;;4.63;;
44588;SDS011;30298;52.562;13.414;2022-08-16T15:04:43;6.85;;;4.65;;
44588;SDS011;30298;52.562;13.414;2022-08-16T15:07:09;4.97;;;4.15;;
44588;SDS011;30298;52.562;13.414;2022-08-16T15:09:35;6.25;;;4.25;;
44588;SDS011;30298;52.562;13.414;2022-08-16T15:12:04;4.40;;;4.00;;
44588;SDS011;30298;52.562;13.414;2022-08-16T15:14:29;6.97;;;4.60;;
44588;SDS011;30298;52.562;13.414;2022-08-16T15:16:54;6.47;;;4.75;;
44588;SDS011;30298;52.562;13.414;2022-08-16T15:19:21;8.57;;;3.97;;
44588;SDS011;30298;52.562;13.414;2022-08-16T15:21:47;7.25;;;4.47;;
44588;SDS011;30298;52.562;13.414;2022-08-16T15:24:13;6.63;;;4.67;;
44588;SDS011;30298;52.562;13.414;2022-08-16T15:26:38;6.97;;;4.70;;
44588;SDS011;30298;52.562;13.414;2022-08-16T15:29:03;6.85;;;4.45;;
44588;SDS011;30298;52.562;13.414;2022-08-16T15:31:29;6.25;;;4.28;;
44588;SDS011;30298;52.562;13.414;2022-08-16T15:33:55;5.25;;;4.22;;
44588;SDS011;30298;52.562;13.414;2022-08-16T15:36:20;9.18;;;4.85;;
44588;SDS011;30298;52.562;13.414;2022-08-16T15:38:46;6.68;;;4.22;;
44588;SDS011;30298;52.562;13.414;2022-08-16T15:43:56;4.35;;;3.90;;
44588;SDS011;30298;52.562;13.414;2022-08-16T15:46:22;5.07;;;4.15;;
44588;SDS011;30298;52.562;13.414;2022-08-16T15:48:47;7.40;;;4.50;;
44588;SDS011;30298;52.562;13.414;2022-08-16T15:51:12;5.15;;;4.65;;
44588;SDS011;30298;52.562;13.414;2022-08-16T15:53:37;6.72;;;4.28;;
44588;SDS011;30298;52.562;13.414;2022-08-16T15:56:03;9.60;;;4.20;;
44588;SDS011;30298;52.562;13.414;2022-08-16T15:58:29;6.68;;;4.32;;
44588;SDS011;30298;52.562;13.414;2022-08-16T16:00:55;4.93;;;4.10;;
44588;SDS011;30298;52.562;13.414;2022-08-16T16:03:21;4.53;;;3.90;;
44588;SDS011;30298;52.562;13.414;2022-08-16T16:05:48;7.50;;;4.50;;
44588;SDS011;30298;52.562;13.414;2022-08-16T16:08:14;5.78;;;4.10;;
44588;SDS011;30298;52.562;13.414;2022-08-16T16:10:40;5.60;;;4.10;;
44588;SDS011;30298;52.562;13.414;2022-08-16T16:13:07;7.05;;;4.75;;
44588;SDS011;30298;52.562;13.414;2022-08-16T16:15:34;5.40;;;4.25;;
44588;SDS011;30298;52.562;13.414;2022-08-16T16:17:59;7.88;;;4.28;;
44588;SDS011;30298;52.562;13.414;2022-08-16T16:20:25;4.90;;;3.80;;
44588;SDS011;30298;52.562;13.414;2022-08-16T16:22:51;6.07;;;4.00;;
44588;SDS011;30298;52.562;13.414;2022-08-16T16:25:17;8.70;;;4.40;;
44588;SDS011;30298;52.562;13.414;2022-08-16T16:27:43;4.95;;;4.28;;
44588;SDS011;30298;52.562;13.414;2022-08-16T16:30:09;5.03;;;4.38;;
44588;SDS011;30298;52.562;13.414;2022-08-16T16:32:34;5.90;;;4.30;;
44588;SDS011;30298;52.562;13.414;2022-08-16T16:35:00;5.85;;;4.18;;